Time;durP1;ratioP1;P1;durP2;ratioP2;P2;SDS_P1;SDS_P2;PMS_P1;PMS_P2;Temp;Humidity;BMP_temperature;BMP_pressure;BME280_temperature;BME280_humidity;BME280_pressure;Samples;Min_cycle;Max_cycle;Signal;HPM_P1;HPM_P2
2022/07/19 15:42:14;;;;;;;21.15;18.98;;;55.90;16.50;;;42.55;14.83;95541.81;5006577;27;2377616;-48
2022/07/19 15:44:48;;;;;;;21.40;20.05;;;56.20;14.80;;;42.51;14.63;95547.56;5063976;28;20044;-47
2022/07/19 15:47:15;;;;;;;22.35;20.45;;;56.90;13.80;;;42.93;14.00;95547.44;5048962;28;20415;-49
2022/07/19 15:49:43;;;;;;;24.83;23.23;;;57.50;13.10;;;43.24;13.61;95542.72;5063693;28;20055;-47
2022/07/19 15:52:09;;;;;;;21.17;19.98;;;58.10;12.60;;;43.24;13.61;95539.91;5050133;22;20452;-48
2022/07/19 15:54:36;;;;;;;23.88;22.27;;;58.50;12.30;;;43.22;13.91;95545.22;5025241;28;20028;-49
2022/07/19 15:57:08;;;;;;;21.33;19.83;;;58.70;11.90;;;42.82;13.90;95541.63;5006946;28;20028;-52
2022/07/19 15:59:34;;;;;;;21.75;19.65;;;58.80;11.70;;;43.18;14.20;95531.38;5014835;28;20025;-51
2022/07/19 16:02:03;;;;;;;20.98;19.50;;;58.90;11.70;;;43.13;14.02;95532.84;5013632;28;20030;-48
2022/07/19 16:04:29;;;;;;;;;;;58.90;11.50;;;43.09;13.67;95535.00;4974478;28;20021;-45
2022/07/19 16:06:58;;;;;;;19.73;18.38;;;58.80;11.80;;;42.90;13.56;95528.81;5020675;28;19905;-52
2022/07/19 16:09:24;;;;;;;19.20;17.92;;;58.90;11.40;;;42.37;13.98;95526.66;4992001;28;20028;-50
2022/07/19 16:11:49;;;;;;;16.98;15.63;;;58.80;11.30;;;42.35;14.10;95531.22;5019751;28;20025;-49
2022/07/19 16:14:18;;;;;;;19.25;17.85;;;58.50;11.10;;;42.46;14.16;95535.00;5008847;28;20070;-50
2022/07/19 16:16:47;;;;;;;17.05;15.77;;;58.40;11.10;;;42.68;14.18;95523.50;5019841;28;20467;-51
2022/07/19 16:19:18;;;;;;;17.95;16.60;;;58.50;11.10;;;42.91;13.80;95527.56;5009157;28;20029;-48
2022/07/19 16:21:45;;;;;;;18.13;16.92;;;58.50;11.10;;;43.12;13.83;95517.28;5010636;28;20033;-47
2022/07/19 16:24:13;;;;;;;15.43;14.43;;;58.40;11.00;;;43.21;13.09;95519.22;5025154;28;20025;-51
2022/07/19 16:26:41;;;;;;;18.33;16.85;;;58.50;10.90;;;42.26;13.91;95515.97;5006196;28;20056;-49
2022/07/19 16:29:07;;;;;;;16.83;15.63;;;58.50;10.80;;;41.41;14.50;95511.63;5009066;28;20033;-46
2022/07/19 16:31:33;;;;;;;16.63;15.50;;;58.20;11.30;;;41.56;14.92;95512.53;5009895;28;20047;-47
2022/07/19 16:34:02;;;;;;;13.77;12.70;;;58.10;10.80;;;41.77;14.24;95505.16;5026626;28;20135;-50
2022/07/19 16:36:27;;;;;;;12.45;11.38;;;57.80;10.80;;;41.92;14.18;95503.25;5009247;28;20033;-49
2022/07/19 16:38:53;;;;;;;13.80;12.70;;;57.70;10.80;;;41.76;14.16;95501.59;5008623;28;20048;-48
2022/07/19 16:41:25;;;;;;;14.80;13.77;;;57.70;10.80;;;42.09;14.37;95502.84;5026231;28;20036;-50
2022/07/19 16:43:54;;;;;;;14.73;13.38;;;57.80;10.90;;;42.07;14.33;95497.75;4988839;28;23056;-45
2022/07/19 16:46:19;;;;;;;14.07;13.13;;;57.90;11.00;;;42.03;14.09;95505.56;5014726;28;20020;-49
2022/07/19 16:48:50;;;;;;;15.75;14.35;;;57.80;10.90;;;42.11;13.85;95500.38;5008690;28;20028;-50
2022/07/19 16:51:17;;;;;;;14.70;13.40;;;57.70;10.70;;;42.06;14.01;95496.22;5011771;28;20079;-47
2022/07/19 16:53:43;;;;;;;13.85;12.38;;;57.70;10.70;;;42.45;14.26;95496.31;5012373;28;20486;-48
2022/07/19 16:56:11;;;;;;;14.32;13.30;;;57.90;10.80;;;42.33;13.63;95486.13;5013017;28;20037;-49
2022/07/19 16:58:43;;;;;;;12.68;11.45;;;57.80;10.70;;;42.21;14.07;95501.88;5011729;28;20040;-48
2022/07/19 17:01:09;;;;;;;11.32;10.52;;;57.90;10.70;;;41.98;14.23;95498.56;5012848;28;20047;-50
2022/07/19 17:03:35;;;;;;;13.20;12.18;;;57.80;10.60;;;41.88;13.70;95496.31;5012895;28;20017;-48
2022/07/19 17:06:01;;;;;;;14.18;13.02;;;57.80;10.60;;;41.79;14.06;95494.28;4995116;28;20384;-48
2022/07/19 17:08:30;;;;;;;11.25;10.23;;;57.70;10.50;;;41.70;14.01;95492.28;4992137;28;20040;-51
2022/07/19 17:11:02;;;;;;;11.35;10.55;;;57.50;10.50;;;41.28;14.03;95492.25;5000923;28;20029;-45
2022/07/19 17:13:34;;;;;;;15.10;8.85;;;57.40;10.50;;;40.89;14.77;95498.31;4981694;28;20112;-46
2022/07/19 17:16:03;;;;;;;7.95;6.28;;;56.90;10.40;;;40.38;15.09;95486.94;4976450;28;20025;-48
2022/07/19 17:18:37;;;;;;;8.70;4.75;;;55.00;10.70;;;40.01;15.34;95492.41;4976534;28;20396;-46
2022/07/19 17:21:04;;;;;;;5.72;4.47;;;52.60;11.60;;;39.08;16.09;95493.13;4969911;28;20032;-49
2022/07/19 17:23:30;;;;;;;7.93;3.92;;;50.30;12.30;;;38.44;16.63;95495.38;5002807;28;20476;-46
2022/07/19 17:26:02;;;;;;;4.30;3.90;;;48.30;13.00;;;37.74;17.10;95489.66;5012256;28;20040;-47
2022/07/19 17:28:28;;;;;;;4.95;3.45;;;46.50;13.80;;;37.22;17.58;95490.78;4992240;28;20112;-56
2022/07/19 17:31:01;;;;;;;6.95;3.20;;;45.00;14.30;;;36.67;18.15;95492.69;4985349;28;20115;-46
2022/07/19 17:33:35;;;;;;;15.10;3.00;;;43.80;14.90;;;36.17;18.07;95491.16;5012389;28;20029;-46
2022/07/19 17:36:03;;;;;;;4.25;3.15;;;42.60;15.40;;;35.80;18.93;95491.22;5012041;28;20100;-46
2022/07/19 17:38:29;;;;;;;6.85;3.33;;;41.70;15.90;;;35.40;18.92;95488.53;5005557;28;20029;-48
2022/07/19 17:41:08;;;;;;;4.32;2.70;;;40.80;16.30;;;35.07;19.27;95487.66;5005984;28;20531;-47
2022/07/19 17:43:34;;;;;;;6.75;3.08;;;40.20;16.70;;;34.73;20.05;95488.69;4995033;28;20033;-48
2022/07/19 17:46:03;;;;;;;5.88;2.85;;;39.50;17.10;;;34.29;20.98;95484.34;4993346;28;20022;-47
2022/07/19 17:48:29;;;;;;;4.68;3.00;;;39.00;17.60;;;34.03;20.81;95485.94;5011362;28;20053;-45
2022/07/19 17:50:56;;;;;;;7.38;3.10;;;38.50;17.90;;;33.65;21.49;95485.31;4991098;28;20054;-51
2022/07/19 17:53:29;;;;;;;4.88;3.05;;;38.10;18.30;;;33.47;21.80;95483.59;4992608;28;20037;-47
2022/07/19 17:55:55;;;;;;;11.82;3.08;;;37.70;18.60;;;33.16;22.04;95486.38;4992379;28;20109;-47
2022/07/19 17:58:20;;;;;;;6.28;3.15;;;37.30;18.90;;;33.03;22.46;95492.81;4991257;28;20472;-45
2022/07/19 18:01:07;;;;;;;6.00;2.83;;;37.00;19.20;;;32.76;22.65;95487.22;4992370;28;20053;-47
2022/07/19 18:03:36;;;;;;;4.15;2.60;;;36.70;19.50;;;32.63;22.24;95492.47;4991829;28;20451;-47
2022/07/19 18:06:03;;;;;;;8.25;2.78;;;36.50;19.60;;;32.44;22.42;95491.09;4991503;28;20084;-48
2022/07/19 18:08:29;;;;;;;4.38;3.22;;;36.20;19.80;;;32.22;23.46;95491.25;4974875;28;20032;-48
2022/07/19 18:10:55;;;;;;;5.70;3.30;;;36.00;20.00;;;31.98;23.47;95497.75;4991897;28;20388;-45
2022/07/19 18:13:24;;;;;;;11.57;2.97;;;35.80;20.30;;;31.80;23.58;95484.09;4992043;28;20543;-48
2022/07/19 18:15:59;;;;;;;7.55;2.80;;;35.60;21.00;;;31.59;24.06;95485.03;4990016;28;20037;-44
2022/07/19 18:18:25;;;;;;;8.15;3.00;;;35.30;20.90;;;31.41;24.81;95487.91;4992248;28;20480;-50
2022/07/19 18:20:51;;;;;;;3.88;2.85;;;35.10;20.90;;;31.20;25.70;95488.75;4990261;28;20148;-45
2022/07/19 18:23:17;;;;;;;6.18;2.70;;;34.90;21.30;;;31.00;26.41;95490.44;4991683;28;20022;-46
2022/07/19 18:25:52;;;;;;;7.22;2.92;;;34.70;21.70;;;30.81;26.37;95489.72;4990034;28;20022;-44
2022/07/19 18:28:22;;;;;;;3.30;2.60;;;34.40;21.90;;;30.51;27.63;95490.16;4990774;28;20022;-46
2022/07/19 18:30:48;;;;;;;8.70;2.75;;;34.20;22.40;;;30.24;28.37;95491.75;4953495;28;20496;-47
2022/07/19 18:33:14;;;;;;;6.60;2.92;;;34.00;22.70;;;29.90;29.08;95484.69;4989968;28;20033;-47
2022/07/19 18:35:40;;;;;;;8.07;2.40;;;33.70;23.10;;;29.67;29.27;95490.53;4973343;28;20032;-47
2022/07/19 18:38:07;;;;;;;8.43;2.88;;;33.50;23.50;;;29.56;29.77;95489.72;4986252;28;20029;-49
2022/07/19 18:40:39;;;;;;;5.88;2.72;;;33.20;23.90;;;29.37;29.58;95485.38;4973986;28;20460;-44
2022/07/19 18:43:05;;;;;;;9.35;2.83;;;33.00;24.30;;;29.19;30.51;95490.81;4989904;28;20017;-46
2022/07/19 18:45:31;;;;;;;4.60;2.70;;;32.80;24.50;;;28.91;30.97;95487.94;4981711;28;20037;-47
2022/07/19 18:47:57;;;;;;;7.40;2.60;;;32.50;24.70;;;28.71;32.02;95492.94;4972261;28;20026;-50
2022/07/19 18:50:24;;;;;;;9.02;3.03;;;32.30;25.10;;;28.55;31.75;95491.28;4989561;28;20033;-52
2022/07/19 18:52:50;;;;;;;13.57;2.75;;;32.10;25.40;;;28.30;32.58;95488.38;5010675;28;20032;-44
2022/07/19 18:55:23;;;;;;;11.07;3.03;;;31.80;25.70;;;28.02;33.47;95483.47;5010842;28;20029;-51
2022/07/19 18:58:01;;;;;;;5.80;2.40;;;31.60;26.20;;;27.62;33.44;95487.00;5010719;28;20033;-48
2022/07/19 19:00:27;;;;;;;7.55;2.92;;;31.40;26.50;;;27.51;33.05;95483.38;4993329;28;20369;-45
2022/07/19 19:02:53;;;;;;;8.90;3.17;;;31.20;26.40;;;27.38;33.32;95485.59;5010535;28;20071;-47
2022/07/19 19:05:19;;;;;;;9.88;2.50;;;31.00;26.60;;;27.13;34.57;95486.09;5010308;28;20025;-46
2022/07/19 19:07:45;;;;;;;6.93;3.00;;;30.80;26.90;;;26.82;35.08;95484.53;4992325;28;20120;-51
2022/07/19 19:10:11;;;;;;;3.58;2.20;;;30.50;27.10;;;26.60;36.05;95488.94;4992810;28;20484;-46
2022/07/19 19:12:55;;;;;;;5.50;2.65;;;30.30;27.40;;;26.30;36.91;95486.19;5010466;28;20029;-48
2022/07/19 19:15:24;;;;;;;6.68;2.75;;;30.10;28.10;;;26.06;36.96;95488.16;5010090;28;20566;-50
2022/07/19 19:18:02;;;;;;;8.82;2.60;;;29.90;28.20;;;25.83;37.61;95493.66;4992845;28;20395;-45
2022/07/19 19:20:28;;;;;;;4.22;2.55;;;29.70;28.70;;;25.67;36.97;95497.63;4992570;28;20037;-46
2022/07/19 19:22:58;;;;;;;7.30;2.65;;;29.40;28.70;;;25.52;36.99;95496.59;4992362;28;20388;-47
2022/07/19 19:25:25;;;;;;;6.78;2.40;;;29.20;28.90;;;25.34;37.08;95494.31;4979957;28;20022;-49
2022/07/19 19:27:51;;;;;;;6.38;2.80;;;29.00;29.00;;;25.25;37.51;95501.16;4972456;28;20022;-47
2022/07/19 19:30:20;;;;;;;5.20;2.33;;;28.80;29.20;;;25.00;38.09;95501.41;4987328;28;20053;-48
2022/07/19 19:32:52;;;;;;;10.07;2.58;;;28.60;29.30;;;24.79;38.29;95504.53;4972349;28;20037;-48
2022/07/19 19:35:20;;;;;;;4.20;2.05;;;28.50;29.70;;;24.69;38.03;95513.22;4988303;28;20076;-48
2022/07/19 19:37:52;;;;;;;4.50;2.28;;;28.30;29.60;;;24.65;38.33;95512.38;4972257;28;20033;-49
2022/07/19 19:40:17;;;;;;;8.27;3.03;;;28.10;29.80;;;24.62;38.22;95508.44;4981915;28;20499;-47
2022/07/19 19:42:52;;;;;;;4.03;2.60;;;28.00;29.90;;;24.59;38.27;95511.88;4998381;28;20147;-52
2022/07/19 19:45:18;;;;;;;6.40;2.72;;;28.00;30.10;;;24.52;38.13;95517.16;4987966;28;20084;-50
2022/07/19 19:47:44;;;;;;;7.68;2.65;;;27.80;30.00;;;24.48;37.70;95515.50;4991058;28;20029;-48
2022/07/19 19:50:11;;;;;;;9.57;2.83;;;27.70;30.10;;;24.43;38.09;95517.34;4991569;28;20089;-52
2022/07/19 19:52:40;;;;;;;9.88;2.67;;;27.70;30.30;;;24.39;38.61;95518.41;5009096;28;20038;-47
2022/07/19 19:55:09;;;;;;;6.22;2.83;;;27.60;30.50;;;24.35;39.00;95518.31;4975711;28;20387;-49
2022/07/19 19:57:44;;;;;;;7.88;2.40;;;27.60;30.80;;;24.24;38.65;95522.72;5008943;28;20055;-47
2022/07/19 20:00:12;;;;;;;7.18;2.45;;;27.50;31.00;;;24.13;38.23;95527.94;5008543;28;20095;-46
2022/07/19 20:02:38;;;;;;;3.70;2.53;;;27.40;30.80;;;24.07;38.24;95523.06;5009236;28;20117;-48
2022/07/19 20:05:07;;;;;;;9.02;2.70;;;27.30;30.70;;;24.01;38.31;95526.09;5008193;28;20032;-47
2022/07/19 20:07:33;;;;;;;3.13;2.47;;;27.30;30.80;;;23.96;38.24;95525.56;5008537;28;20030;-50
2022/07/19 20:09:59;;;;;;;7.15;2.30;;;27.20;30.80;;;23.91;38.37;95521.19;5006599;28;20108;-51
2022/07/19 20:12:25;;;;;;;4.40;2.50;;;27.20;30.90;;;23.83;39.25;95522.13;4989498;28;20108;-48
2022/07/19 20:14:54;;;;;;;4.07;2.60;;;27.10;31.00;;;23.76;38.78;95530.13;5000889;28;20207;-48
2022/07/19 20:17:23;;;;;;;3.90;2.28;;;27.00;31.10;;;23.65;39.00;95526.31;5007466;28;20060;-47
2022/07/19 20:19:50;;;;;;;6.57;2.25;;;27.00;31.20;;;23.57;39.55;95525.34;5008155;28;20024;-50
2022/07/19 20:22:16;;;;;;;5.22;2.40;;;26.90;31.30;;;23.53;39.63;95527.16;5007577;28;20120;-47
2022/07/19 20:24:46;;;;;;;7.32;2.67;;;26.90;31.50;;;23.48;40.09;95527.44;5009227;28;20025;-46
2022/07/19 20:27:15;;;;;;;7.30;2.70;;;26.80;31.60;;;23.42;40.20;95532.31;5009393;28;20032;-49
2022/07/19 20:29:42;;;;;;;8.13;2.38;;;26.70;32.00;;;23.31;40.27;95526.59;4982441;28;20017;-48
2022/07/19 20:32:08;;;;;;;13.63;2.50;;;26.70;32.00;;;23.28;40.90;95529.22;4995998;28;20064;-49
2022/07/19 20:34:34;;;;;;;5.22;2.55;;;26.60;32.10;;;23.20;41.11;95530.19;4996164;28;20049;-47
2022/07/19 20:37:00;;;;;;;7.47;2.50;;;26.60;32.40;;;23.06;41.58;95519.69;5013423;28;20044;-47
2022/07/19 20:39:27;;;;;;;8.48;2.75;;;26.50;32.60;;;22.95;42.42;95524.84;5000681;28;20029;-49
2022/07/19 20:41:53;;;;;;;10.07;2.90;;;26.40;32.80;;;22.92;42.41;95530.94;4995651;28;20488;-46
2022/07/19 20:44:27;;;;;;;9.10;3.00;;;26.30;32.90;;;22.94;42.27;95530.59;5013521;28;20543;-45
2022/07/19 20:46:54;;;;;;;11.75;3.40;;;26.30;33.40;;;22.94;42.22;95528.69;4992621;28;20083;-44
2022/07/19 20:49:22;;;;;;;12.98;3.05;;;26.20;33.30;;;22.92;42.13;95525.50;4996168;28;20476;-50
2022/07/19 20:51:50;;;;;;;11.48;3.63;;;26.20;33.50;;;22.87;43.24;95523.00;5013404;28;20045;-45
2022/07/19 20:54:17;;;;;;;8.38;2.55;;;26.20;33.90;;;22.81;43.07;95530.63;5013338;28;20029;-48
2022/07/19 20:56:43;;;;;;;7.50;2.78;;;26.10;34.00;;;22.70;43.88;95534.16;4995423;28;20052;-47
2022/07/19 20:59:11;;;;;;;7.65;2.55;;;26.10;34.20;;;22.64;43.62;95533.59;5012140;28;20041;-47
2022/07/19 21:01:46;;;;;;;5.70;3.05;;;26.00;34.30;;;22.61;44.50;95542.44;4997106;28;20101;-46
2022/07/19 21:04:12;;;;;;;8.60;2.97;;;25.90;34.80;;;22.50;44.55;95535.88;5013524;28;20091;-46
2022/07/19 21:06:38;;;;;;;7.55;2.72;;;25.90;34.80;;;22.39;45.04;95538.28;5011530;28;20080;-48
2022/07/19 21:09:09;;;;;;;5.22;2.60;;;25.80;35.00;;;22.22;45.77;95536.63;4995623;28;20036;-46
2022/07/19 21:11:47;;;;;;;10.70;2.63;;;25.70;35.30;;;22.04;46.21;95532.50;5013246;28;20025;-45
2022/07/19 21:14:13;;;;;;;5.60;2.70;;;25.60;35.70;;;21.98;46.27;95533.88;5011767;28;20120;-48
2022/07/19 21:16:39;;;;;;;7.13;2.65;;;25.50;35.60;;;22.01;46.48;95527.78;4994994;28;20432;-45
2022/07/19 21:19:05;;;;;;;5.95;2.72;;;25.40;35.80;;;21.95;46.54;95538.03;5011894;28;20159;-51
2022/07/19 21:21:31;;;;;;;6.80;3.38;;;25.40;36.10;;;21.89;47.09;95539.41;5011555;28;20045;-47
2022/07/19 21:24:02;;;;;;;6.32;2.53;;;25.30;36.30;;;21.79;47.44;95534.41;5013318;28;20048;-46
2022/07/19 21:26:32;;;;;;;5.57;2.92;;;25.20;36.70;;;21.76;47.68;95545.94;4994357;28;20029;-45
2022/07/19 21:29:01;;;;;;;4.57;2.90;;;25.10;36.90;;;21.61;48.63;95531.09;5012814;28;20017;-46
2022/07/19 21:31:30;;;;;;;4.57;3.47;;;25.10;37.20;;;21.48;49.00;95541.91;5012837;28;20434;-46
2022/07/19 21:34:05;;;;;;;11.40;3.10;;;25.00;37.40;;;21.48;48.98;95547.34;5011541;28;20056;-47
2022/07/19 21:36:37;;;;;;;7.68;3.28;;;24.90;37.50;;;21.48;49.04;95541.91;4995947;28;20464;-46
2022/07/19 21:39:10;;;;;;;6.45;2.75;;;24.90;37.90;;;21.46;48.72;95543.38;4980426;28;20025;-47
2022/07/19 21:41:41;;;;;;;;;;;24.80;38.00;;;21.35;49.70;95543.03;5012196;28;20456;-49
2022/07/19 21:44:08;;;;;;;4.00;2.92;;;24.70;37.40;;;21.32;49.82;95548.28;5011304;28;19908;-51
2022/07/19 21:46:35;;;;;;;9.40;3.03;;;24.70;38.00;;;21.27;50.32;95550.06;4994458;28;20028;-47
2022/07/19 21:49:02;;;;;;;4.82;3.33;;;24.70;38.50;;;21.23;50.16;95549.16;5011429;28;20475;-48
2022/07/19 21:51:29;;;;;;;8.30;3.30;;;24.60;38.80;;;21.17;50.49;95552.41;5012664;22;20052;-51
2022/07/19 21:53:56;;;;;;;7.45;3.20;;;24.50;39.00;;;21.14;49.89;95553.06;5011271;28;20063;-47
2022/07/19 21:56:29;;;;;;;6.03;3.08;;;24.50;39.10;;;21.13;49.81;95552.28;4994390;28;20387;-47
2022/07/19 21:58:55;;;;;;;3.33;2.88;;;24.50;39.40;;;21.10;49.60;95558.34;4994456;28;20039;-46
2022/07/19 22:01:27;;;;;;;5.13;2.97;;;24.40;39.20;;;21.09;49.80;95558.69;5001648;28;20048;-46
2022/07/19 22:03:53;;;;;;;8.07;3.78;;;24.40;39.60;;;21.06;49.89;95564.75;4992668;28;20021;-46
2022/07/19 22:06:25;;;;;;;7.93;3.03;;;24.40;39.50;;;21.02;50.45;95561.91;4992184;28;20040;-46
2022/07/19 22:09:04;;;;;;;7.70;3.00;;;24.30;39.80;;;20.99;50.39;95566.09;4992429;28;20025;-45
2022/07/19 22:11:31;;;;;;;4.55;2.90;;;24.30;39.90;;;20.98;50.60;95569.13;4992007;28;20031;-45
2022/07/19 22:14:06;;;;;;;8.50;3.47;;;24.30;39.80;;;20.95;49.97;95567.88;4992314;28;20032;-45
2022/07/19 22:16:33;;;;;;;6.85;2.75;;;24.30;40.10;;;20.95;49.90;95570.59;4991973;28;20567;-48
2022/07/19 22:19:03;;;;;;;4.50;3.00;;;24.30;39.90;;;20.88;50.19;95566.84;4992351;28;20440;-45
2022/07/19 22:21:30;;;;;;;5.15;3.20;;;24.30;40.10;;;20.86;50.86;95571.78;4991208;28;20036;-46
2022/07/19 22:23:56;;;;;;;11.38;3.20;;;24.20;40.10;;;20.85;50.44;95567.50;4990605;28;20079;-46
2022/07/19 22:26:25;;;;;;;4.78;3.28;;;24.20;40.20;;;20.83;49.95;95575.16;4991529;28;20030;-52
2022/07/19 22:28:51;;;;;;;6.93;2.78;;;24.20;40.40;;;20.84;48.95;95569.41;4990867;28;20427;-47
2022/07/19 22:31:22;;;;;;;5.75;2.90;;;24.10;40.10;;;20.88;49.23;95569.53;4974468;28;20507;-46
2022/07/19 22:33:54;;;;;;;9.32;3.20;;;24.20;40.30;;;20.93;48.59;95570.13;4991756;28;20458;-49
